< < Back
Terminal Aerodrome Forecast


Current Version              Previous Versions:   1  2  3  4  5  6  7  8  9  

Terminal Aerodrome Forecast

616
FTUS44 KBMX 241121
TAFANB
TAF
KANB 241121Z 2412/2512 23004KT P6SM FEW250=

Latest METAR

241
SAUS70 KWBC 251456
MTRANB
METAR KANB 251453Z AUTO 00000KT CLR 26/16 A3022 RMK AO2 SLP226 T02560156
50005 PWINO $


USA.gov is the U.S. government's official web portal to all federal, state and local government web resources and services.